• Join FlightAware (Why Join?)
  • Login
  • US Flag GB Flag 
10:20 EDT


 

Airport Tracker/Info


-or-


 

Live Flight TrackerFlight Track Log ✈ FLG3432 ✈ 02-Jul-2013 ✈ KDTW - KIND

Flight Track Log - Related Links

Times and Time Zones

All times are in EDT time to prevent confusion due to time zone crossing. See the FLG3432 flight status page for this flight to view local times or setup timezone preferences in your user account.

Time Position Orientation Groundspeed Altitude Reporting Facility
EDT Latitude Longitude Course Direction KTS MPH feet Rate Location/Type
12:40 42.2333 -83.3344 208° Southwest 163 188 1,300  Level Cleveland Center
12:41 42.2742 -83.3697 327° Northwest 214 246 3,400 1,380 Climbing Cleveland Center
12:42 42.3267 -83.4422 314° West 298 343 4,000 420 Climbing Cleveland Center
12:43 42.0495 -83.5553 217° Southwest  Level Estimated
12:44 41.9951 -83.6224 211° Southwest  Level Estimated
12:44 42.2160 -83.4455 181° South  Level FlightAware Approximate
12:45 41.9407 -83.6893 217° Southwest  Level Estimated
12:46 41.8862 -83.7561 208° Southwest  Level Estimated
12:51 41.8294 -83.9062 209° Southwest  Level Estimated
12:52 41.7581 -83.9316 195° South  Level FlightAware Approximate
12:53 41.6868 -83.9569 195° South  Level FlightAware Approximate
12:54 41.6155 -83.9822 195° South  Level FlightAware Approximate
12:55 41.5442 -84.0074 195° South  Level FlightAware Approximate
12:56 41.4729 -84.0326 195° South  Level FlightAware Approximate
12:56 41.5611 -84.5956 234° Southwest 338 389 10,000  Level Chicago Center
12:57 41.4016 -84.0577 195° South  Level FlightAware Approximate
12:57 41.4864 -84.6725 218° Southwest 339 390 10,000  Level Chicago Center
12:58 41.3503 -84.1283 254° West  Level Estimated
12:58 41.4114 -84.7494 218° Southwest 339 390 10,000  Level Chicago Center
12:59 41.3074 -84.2083 234° Southwest  Level FlightAware Approximate
12:59 41.3228 -84.8397 217° Southwest 333 383 10,000  Level Chicago Center
13:00 41.2645 -84.2881 234° Southwest  Level FlightAware Approximate
13:00 41.2472 -84.9150 217° Southwest 337 388 10,000  Level Chicago Center
13:01 41.2215 -84.3678 234° Southwest  Level FlightAware Approximate
13:01 41.1728 -84.9911 218° Southwest 337 388 10,000  Level Chicago Center
13:02 41.0978 -85.0667 217° Southwest 338 389 10,000  Level Chicago Center
13:03 41.0239 -85.1406 217° Southwest 334 384 10,000  Level Chicago Center
13:04 40.9403 -85.1958 207° Southwest 345 397 10,000  Level Chicago Center
13:05 40.8511 -85.2211 192° South 331 381 10,000  Level Chicago Center
13:06 40.7419 -85.2508 192° South 332 382 10,000  Level Chicago Center
13:08 40.6486 -85.2778 192° South 337 388 10,000  Level Chicago Center
13:09 40.5564 -85.3033 192° South 339 390 10,000  Level Chicago Center
13:10 40.4664 -85.3283 192° South 334 384 10,000  Level Chicago Center
13:11 40.3769 -85.3531 192° South 330 380 10,000  Level Chicago Center
13:12 40.3008 -85.4164 212° Southwest 342 394 10,000  Level Indianapolis Center
13:13 40.2389 -85.5050 228° Southwest 334 384 10,000  Level Indianapolis Center
13:14 40.1758 -85.5950 227° Southwest 334 384 10,000  Level Indianapolis Center
13:15 40.1106 -85.6867 227° Southwest 341 392 10,000  Level Indianapolis Center
13:16 40.0333 -85.7953 227° Southwest 342 394 10,000  Level Indianapolis Center
13:17 39.9694 -85.8853 227° Southwest 340 391 10,000  Level Indianapolis Center
13:18 39.9089 -85.9717 228° Southwest 326 375 10,000 -840 Level Indianapolis Center
13:19 39.8586 -86.0444 228° Southwest 278 320 8,300 -1,500 Descending Indianapolis Center
13:20 39.8072 -86.1178 228° Southwest 276 318 7,000 -660 Descending Indianapolis Center
13:21 39.7528 -86.1722 218° Southwest 251 289 7,000  Level Indianapolis Center
13:22 39.7003 -86.2267 219° Southwest 238 274 7,000 -420 Level Indianapolis Center
13:23 39.6489 -86.2769 217° Southwest 230 265 6,200 -1,020 Descending Indianapolis Center
13:24 39.5953 -86.3225 213° Southwest 228 262 5,000 -1,260 Descending Indianapolis Center
13:25 39.5503 -86.3969 232° Southwest 229 264 3,600 -960 Descending Indianapolis Center
13:26 39.5942 -86.4297 330° Northwest 223 257 3,100 -540 Descending Indianapolis Center